Time;durP1;ratioP1;P1;durP2;ratioP2;P2;SDS_P1;SDS_P2;PMS_P1;PMS_P2;Temp;Humidity;BMP_temperature;BMP_pressure;BME280_temperature;BME280_humidity;BME280_pressure;Samples;Min_cycle;Max_cycle;Signal;HPM_P1;HPM_P2
2021/11/14 00:00:25;;;;;;;65.00;32.60;;;;;;;-1.27;100.00;101283.36;1705163;83;21124;-82
2021/11/14 00:02:52;;;;;;;71.42;32.17;;;;;;;-1.31;100.00;101280.25;1699240;83;21065;-80
2021/11/14 00:05:19;;;;;;;58.55;29.18;;;;;;;-1.34;100.00;101283.59;1696549;83;21079;-80
2021/11/14 00:07:46;;;;;;;54.83;26.50;;;;;;;-1.34;100.00;101278.85;1688864;84;21068;-82
2021/11/14 00:10:14;;;;;;;59.55;28.45;;;;;;;-1.35;100.00;101279.70;1688896;84;21119;-82
2021/11/14 00:12:42;;;;;;;49.67;27.10;;;;;;;-1.35;100.00;101290.03;1689090;84;21555;-81
2021/11/14 00:15:09;;;;;;;59.73;29.15;;;;;;;-1.37;100.00;101280.93;1695126;83;20990;-78
2021/11/14 00:17:37;;;;;;;63.10;29.90;;;;;;;-1.36;100.00;101288.26;1717420;83;21166;-79
2021/11/14 00:20:07;;;;;;;66.17;32.05;;;;;;;-1.40;100.00;101282.14;1679491;85;21095;-78
2021/11/14 00:22:34;;;;;;;64.72;30.52;;;;;;;-1.39;100.00;101286.89;1715135;83;21105;-79
2021/11/14 00:25:02;;;;;;;63.45;31.57;;;;;;;-1.40;100.00;101286.41;1716428;83;21948;-78
2021/11/14 00:27:28;;;;;;;56.25;27.60;;;;;;;-1.41;100.00;101287.25;1679550;85;21086;-79
2021/11/14 00:29:56;;;;;;;72.47;31.12;;;;;;;-1.43;100.00;101281.16;1651895;86;21086;-78
2021/11/14 00:32:23;;;;;;;54.23;27.55;;;;;;;-1.42;100.00;101277.77;1679720;85;21055;-76
2021/11/14 00:34:51;;;;;;;56.25;29.90;;;;;;;-1.44;100.00;101282.88;1652084;86;21121;-78
2021/11/14 00:37:22;;;;;;;63.68;29.77;;;;;;;-1.45;100.00;101277.65;1679395;85;21468;-79
2021/11/14 00:39:47;;;;;;;67.15;31.35;;;;;;;-1.45;100.00;101272.48;1650745;86;21058;-77
2021/11/14 00:42:13;;;;;;;68.45;31.15;;;;;;;-1.46;100.00;101268.16;1716250;83;21603;-78
2021/11/14 00:44:40;;;;;;;59.63;29.37;;;;;;;-1.48;100.00;101267.68;1707997;83;21060;-78
2021/11/14 00:47:11;;;;;;;55.78;29.02;;;;;;;-1.49;100.00;101264.65;1689651;83;21115;-79
2021/11/14 00:49:36;;;;;;;52.60;26.00;;;;;;;-1.48;100.00;101261.22;1688094;84;21144;-77
2021/11/14 00:52:03;;;;;;;67.95;31.50;;;;;;;-1.49;100.00;101254.31;1692181;83;21523;-78
2021/11/14 00:54:31;;;;;;;53.58;25.32;;;;;;;-1.50;100.00;101257.70;1717513;83;21042;-79
2021/11/14 00:56:58;;;;;;;56.33;29.55;;;;;;;-1.51;100.00;101259.84;1718095;83;21072;-79
2021/11/14 00:59:24;;;;;;;54.65;26.80;;;;;;;-1.51;100.00;101255.10;1717762;83;21571;-78
2021/11/14 01:01:50;;;;;;;59.90;29.23;;;;;;;-1.51;100.00;101255.97;1717172;83;21113;-78
2021/11/14 01:04:17;;;;;;;54.30;26.85;;;;;;;-1.51;100.00;101253.39;1717778;83;21021;-78
2021/11/14 01:06:44;;;;;;;53.17;25.80;;;;;;;-1.52;100.00;101241.31;1718034;83;21100;-78
2021/11/14 01:09:10;;;;;;;56.48;27.75;;;;;;;-1.50;100.00;101260.30;1717605;83;21101;-79
2021/11/14 01:11:37;;;;;;;48.48;25.30;;;;;;;-1.49;100.00;101256.89;1717752;83;21081;-78
2021/11/14 01:14:04;;;;;;;59.13;28.32;;;;;;;-1.50;100.00;101252.54;1717761;83;22346;-78
2021/11/14 01:16:30;;;;;;;58.58;29.23;;;;;;;-1.49;100.00;101249.14;1717699;83;21062;-78
2021/11/14 01:18:56;;;;;;;52.90;28.47;;;;;;;-1.46;100.00;101255.23;1717475;83;21124;-78
2021/11/14 01:21:27;;;;;;;65.05;30.10;;;;;;;-1.44;100.00;101248.41;1718006;83;21061;-78
2021/11/14 01:23:55;;;;;;;56.45;30.00;;;;;;;-1.41;100.00;101253.66;1717878;83;21080;-78
2021/11/14 01:26:22;;;;;;;52.88;28.38;;;;;;;-1.39;100.00;101254.59;1717503;83;21139;-80
2021/11/14 01:28:48;;;;;;;62.78;28.62;;;;;;;-1.39;100.00;101246.84;1718186;83;21061;-78
2021/11/14 01:31:15;;;;;;;56.85;28.02;;;;;;;-1.34;100.00;101249.12;1717774;83;21816;-78
2021/11/14 01:33:41;;;;;;;56.35;28.12;;;;;;;-1.26;100.00;101250.24;1718022;83;21033;-76
2021/11/14 01:36:08;;;;;;;57.13;27.02;;;;;;;-1.20;100.00;101252.11;1718438;83;21136;-78
2021/11/14 01:38:34;;;;;;;58.15;26.70;;;;;;;-1.15;100.00;101248.84;1718138;83;21112;-78
2021/11/14 01:41:10;;;;;;;53.95;26.52;;;;;;;-1.06;100.00;101254.28;1717598;83;21622;-78
2021/11/14 01:43:40;;;;;;;51.68;25.50;;;;;;;-0.98;100.00;101257.49;1718032;82;21061;-80
2021/11/14 01:46:10;;;;;;;57.62;29.10;;;;;;;-0.92;100.00;101260.23;1717830;83;21014;-79
2021/11/14 01:48:36;;;;;;;59.45;28.60;;;;;;;-0.87;100.00;101254.37;1717837;83;21049;-79
2021/11/14 01:51:02;;;;;;;56.25;28.05;;;;;;;-0.78;100.00;101260.22;1717898;83;21527;-78
2021/11/14 01:53:30;;;;;;;55.20;26.48;;;;;;;-0.72;100.00;101255.19;1717646;83;21108;-79
2021/11/14 01:55:56;;;;;;;57.88;26.73;;;;;;;-0.70;100.00;101257.40;1717758;83;21232;-77
2021/11/14 01:58:25;;;;;;;56.63;28.23;;;;;;;-0.69;100.00;101261.76;1717920;83;21112;-77
2021/11/14 02:01:12;;;;;;;57.50;27.37;;;;;;;-0.72;100.00;101253.02;1717649;83;21188;-76
2021/11/14 02:03:42;;;;;;;51.40;25.37;;;;;;;-0.76;100.00;101258.55;1711182;83;21132;-77
2021/11/14 02:06:09;;;;;;;47.93;24.10;;;;;;;-0.79;100.00;101262.33;1688963;84;21104;-81
2021/11/14 02:08:38;;;;;;;52.17;24.77;;;;;;;-0.79;100.00;101268.79;1688977;84;21108;-80
2021/11/14 02:11:05;;;;;;;47.98;24.70;;;;;;;-0.82;100.00;101271.30;1680765;84;21102;-80
2021/11/14 02:13:32;;;;;;;53.10;26.27;;;;;;;-0.83;100.00;101270.83;1675316;85;21549;-79
2021/11/14 02:15:59;;;;;;;57.80;25.90;;;;;;;-0.79;100.00;101280.43;1670545;85;21137;-79
2021/11/14 02:18:26;;;;;;;45.60;21.55;;;;;;;-0.77;100.00;101271.00;1670198;85;21639;-81
2021/11/14 02:20:52;;;;;;;54.58;25.08;;;;;;;-0.73;100.00;101265.09;1670296;85;21105;-77
2021/11/14 02:23:21;;;;;;;55.08;27.17;;;;;;;-0.66;100.00;101267.00;1670515;85;21124;-77
2021/11/14 02:25:47;;;;;;;59.93;27.67;;;;;;;-0.67;100.00;101267.85;1670451;85;21061;-77
2021/11/14 02:28:15;;;;;;;56.18;25.00;;;;;;;-0.66;100.00;101270.88;1670466;85;21129;-78
2021/11/14 02:30:42;;;;;;;48.70;24.23;;;;;;;-0.69;100.00;101264.34;1670390;85;21547;-77
2021/11/14 02:33:09;;;;;;;59.73;27.40;;;;;;;-0.71;100.00;101267.30;1670310;85;21063;-78
2021/11/14 02:35:35;;;;;;;63.28;27.75;;;;;;;-0.72;100.00;101277.17;1670049;85;21547;-78
2021/11/14 02:38:03;;;;;;;59.75;27.50;;;;;;;-0.67;100.00;101278.20;1670577;85;21120;-77
2021/11/14 02:40:30;;;;;;;62.45;26.97;;;;;;;-0.62;100.00;101276.12;1670047;85;21154;-74
2021/11/14 02:42:56;;;;;;;54.60;26.48;;;;;;;-0.61;100.00;101277.90;1670340;85;21097;-75
2021/11/14 02:45:24;;;;;;;63.98;26.02;;;;;;;-0.62;100.00;101278.72;1670184;85;21587;-73
2021/11/14 02:47:51;;;;;;;56.58;27.13;;;;;;;-0.59;100.00;101278.39;1670485;85;21137;-73
2021/11/14 02:50:19;;;;;;;53.95;26.48;;;;;;;-0.54;100.00;101281.11;1670269;85;21147;-76
2021/11/14 02:52:46;;;;;;;51.88;26.25;;;;;;;-0.51;100.00;101276.00;1670440;85;21579;-76
2021/11/14 02:55:14;;;;;;;53.02;25.65;;;;;;;-0.46;100.00;101276.99;1670230;85;21078;-75
2021/11/14 02:57:41;;;;;;;52.43;26.17;;;;;;;-0.40;100.00;101273.28;1670171;85;21060;-76
2021/11/14 03:00:13;;;;;;;55.85;25.48;;;;;;;-0.35;100.00;101270.38;1670374;85;21556;-75
2021/11/14 03:02:39;;;;;;;52.03;22.95;;;;;;;-0.31;100.00;101272.22;1670380;85;21140;-75
2021/11/14 03:05:12;;;;;;;56.00;26.35;;;;;;;-0.30;100.00;101268.81;1698270;84;21574;-75
2021/11/14 03:07:39;;;;;;;49.23;23.05;;;;;;;-0.28;100.00;101266.24;1704302;84;21081;-75
2021/11/14 03:10:08;;;;;;;45.40;21.85;;;;;;;-0.27;100.00;101259.82;1704666;83;21069;-75
2021/11/14 03:12:35;;;;;;;62.90;25.92;;;;;;;-0.26;100.00;101260.27;1712033;83;21077;-74
2021/11/14 03:15:03;;;;;;;51.20;23.70;;;;;;;-0.26;100.00;101260.27;1712202;83;21126;-75
2021/11/14 03:17:32;;;;;;;46.00;23.65;;;;;;;-0.25;100.00;101259.88;1712039;83;21122;-74
2021/11/14 03:19:59;;;;;;;55.33;24.65;;;;;;;-0.26;100.00;101260.27;1712080;83;21077;-75
2021/11/14 03:22:25;;;;;;;52.03;24.92;;;;;;;-0.29;100.00;101255.45;1712030;83;21525;-75
2021/11/14 03:24:53;;;;;;;57.73;25.25;;;;;;;-0.31;100.00;101261.87;1712342;83;21129;-73
2021/11/14 03:27:23;;;;;;;49.27;25.68;;;;;;;-0.34;100.00;101261.80;1712013;83;21617;-75
2021/11/14 03:29:50;;;;;;;41.48;22.27;;;;;;;-0.37;100.00;101261.70;1712284;83;21356;-74
2021/11/14 03:32:16;;;;;;;46.45;22.55;;;;;;;-0.41;100.00;101266.36;1712081;83;21227;-75
2021/11/14 03:34:43;;;;;;;52.78;24.02;;;;;;;-0.45;100.00;101255.47;1712547;83;21057;-74
2021/11/14 03:37:19;;;;;;;49.60;24.00;;;;;;;-0.46;100.00;101261.46;1712479;83;21049;-75
2021/11/14 03:39:46;;;;;;;43.98;22.35;;;;;;;-0.45;100.00;101261.94;1712217;83;21041;-74
2021/11/14 03:42:13;;;;;;;50.33;23.02;;;;;;;-0.45;100.00;101261.94;1712362;83;21184;-75
2021/11/14 03:44:40;;;;;;;46.00;23.90;;;;;;;-0.45;100.00;101258.92;1712301;83;21021;-76
2021/11/14 03:47:09;;;;;;;43.58;23.40;;;;;;;-0.48;100.00;101263.16;1712097;83;21062;-76
2021/11/14 03:49:37;;;;;;;49.43;22.63;;;;;;;-0.50;100.00;101260.53;1712355;83;21045;-75
2021/11/14 03:52:09;;;;;;;41.92;18.32;;;;;;;-0.50;100.00;101256.64;1711840;83;21105;-74
2021/11/14 03:54:36;;;;;;;53.73;24.67;;;;;;;-0.53;100.00;101256.97;1712088;83;21110;-75
2021/11/14 03:57:03;;;;;;;52.75;25.90;;;;;;;-0.54;100.00;101255.23;1712325;83;21482;-76
2021/11/14 03:59:29;;;;;;;48.48;24.00;;;;;;;-0.56;100.00;101255.61;1712085;83;21057;-76
2021/11/14 04:01:56;;;;;;;56.98;27.40;;;;;;;-0.58;100.00;101259.86;1712105;83;21120;-78
2021/11/14 04:04:22;;;;;;;56.70;27.48;;;;;;;-0.61;100.00;101263.67;1712608;83;21096;-80
2021/11/14 04:06:48;;;;;;;58.78;25.82;;;;;;;-0.65;100.00;101258.39;1714478;83;21501;-86
2021/11/14 04:09:15;;;;;;;51.50;26.17;;;;;;;-0.66;100.00;101264.42;1712167;83;21097;-81
2021/11/14 04:11:41;;;;;;;66.65;26.85;;;;;;;-0.67;100.00;101260.09;1691453;83;21539;-81
2021/11/14 04:14:08;;;;;;;59.93;27.75;;;;;;;-0.69;100.00;101259.17;1684043;83;21045;-80
2021/11/14 04:16:36;;;;;;;58.68;27.85;;;;;;;-0.74;100.00;101259.44;1693435;83;21081;-84
2021/11/14 04:19:03;;;;;;;59.00;24.80;;;;;;;-0.78;100.00;101269.27;1690278;83;22122;-83
2021/11/14 04:21:30;;;;;;;50.08;24.15;;;;;;;-0.78;100.00;101261.52;1683168;83;21046;-81
2021/11/14 04:23:56;;;;;;;57.15;24.85;;;;;;;-0.79;100.00;101267.50;1683473;85;21124;-83
2021/11/14 04:26:23;;;;;;;54.75;23.07;;;;;;;-0.76;100.00;101256.36;1683853;85;21061;-83
2021/11/14 04:28:50;;;;;;;50.90;24.82;;;;;;;-0.76;100.00;101258.55;1683960;85;21084;-83
2021/11/14 04:31:16;;;;;;;41.58;22.35;;;;;;;-0.75;100.00;101265.88;1691849;83;21142;-82
2021/11/14 04:33:42;;;;;;;47.67;23.40;;;;;;;-0.73;100.00;101265.09;1691760;83;21026;-83
2021/11/14 04:36:10;;;;;;;60.33;27.85;;;;;;;-0.71;100.00;101261.27;1697081;83;21098;-83
2021/11/14 04:38:37;;;;;;;51.13;23.62;;;;;;;-0.70;100.00;101262.58;1682712;85;21670;-82
2021/11/14 04:41:03;;;;;;;44.40;22.40;;;;;;;-0.68;100.00;101265.21;1683364;85;21117;-83
2021/11/14 04:43:30;;;;;;;65.03;29.23;;;;;;;-0.67;100.00;101260.09;1682856;85;21101;-85
2021/11/14 04:45:57;;;;;;;78.92;33.75;;;;;;;-0.65;100.00;101260.11;1683084;85;21101;-82
2021/11/14 04:48:24;;;;;;;75.78;31.93;;;;;;;-0.64;100.00;101266.63;1683195;85;21081;-83
2021/11/14 04:50:51;;;;;;;106.75;45.30;;;;;;;-0.65;100.00;101260.98;1683574;85;21536;-82
2021/11/14 04:53:18;;;;;;;76.20;35.98;;;;;;;-0.65;100.00;101258.39;1683331;85;21037;-83
2021/11/14 04:55:46;;;;;;;84.97;39.70;;;;;;;-0.66;100.00;101257.95;1698660;83;21553;-81
2021/11/14 04:58:13;;;;;;;69.42;31.45;;;;;;;-0.69;100.00;101261.76;1687102;83;21053;-83
2021/11/14 05:00:44;;;;;;;80.75;35.83;;;;;;;-0.69;100.00;101270.81;1690688;83;21080;-82
2021/11/14 05:03:11;;;;;;;78.70;33.95;;;;;;;-0.74;100.00;101273.66;1690315;83;21567;-82
2021/11/14 05:05:38;;;;;;;76.02;33.08;;;;;;;-0.75;100.00;101277.10;1709191;83;21136;-81
2021/11/14 05:08:05;;;;;;;75.57;29.45;;;;;;;-0.77;100.00;101277.47;1711796;83;21148;-81
2021/11/14 05:10:32;;;;;;;75.35;30.37;;;;;;;-0.80;100.00;101282.57;1711663;83;21049;-81
2021/11/14 05:13:00;;;;;;;58.83;29.30;;;;;;;-0.85;100.00;101284.16;1686972;83;21581;-83
2021/11/14 05:15:28;;;;;;;77.65;25.57;;;;;;;-0.89;100.00;101283.61;1676206;84;21084;-82
2021/11/14 05:17:55;;;;;;;55.73;25.48;;;;;;;-0.90;100.00;101284.42;1675970;85;21080;-82
2021/11/14 05:20:22;;;;;;;57.95;25.62;;;;;;;-0.87;100.00;101288.41;1676063;85;21135;-82
2021/11/14 05:25:42;;;;;;;66.43;29.50;;;;;;;-0.83;100.00;101285.05;1813865;79;23399;-83
2021/11/14 05:28:10;;;;;;;73.07;32.00;;;;;;;-0.86;100.00;101282.39;1787286;80;20961;-82
2021/11/14 05:30:36;;;;;;;70.22;30.00;;;;;;;-0.86;100.00;101283.69;1787079;80;21174;-83
2021/11/14 05:33:03;;;;;;;64.47;31.93;;;;;;;-0.86;100.00;101292.73;1787156;80;21056;-82
2021/11/14 05:35:29;;;;;;;67.70;28.62;;;;;;;-0.89;100.00;101288.36;1765969;80;22198;-82
2021/11/14 05:37:56;;;;;;;73.45;32.67;;;;;;;-0.90;100.00;101297.36;1747453;82;21017;-84
2021/11/14 05:40:23;;;;;;;66.67;28.92;;;;;;;-0.89;100.00;101305.59;1766937;80;21035;-83
2021/11/14 05:42:50;;;;;;;55.33;26.02;;;;;;;-0.89;100.00;101305.59;1782210;80;21143;-82
2021/11/14 05:45:16;;;;;;;62.08;28.73;;;;;;;-0.87;100.00;101309.10;1781981;80;21025;-83
2021/11/14 05:47:42;;;;;;;60.73;29.42;;;;;;;-0.87;100.00;101313.85;1781765;80;21001;-83
2021/11/14 05:50:09;;;;;;;60.52;26.45;;;;;;;-0.85;100.00;101317.78;1782088;80;21014;-82
2021/11/14 08:09:39;;;;;;;80.73;35.90;;;;;;;0.87;100.00;101314.27;1772728;80;24566;-86
2021/11/14 08:12:08;;;;;;;72.25;33.33;;;;;;;0.86;100.00;101320.32;1745614;82;20993;-86
2021/11/14 08:14:36;;;;;;;68.37;32.25;;;;;;;0.89;100.00;101310.00;1775188;80;21031;-85
2021/11/14 08:17:04;;;;;;;68.72;28.83;;;;;;;0.89;100.00;101310.00;1758747;81;21043;-87
2021/11/14 08:19:30;;;;;;;59.77;29.55;;;;;;;0.92;100.00;101312.69;1775595;80;20982;-87
2021/11/14 08:21:57;;;;;;;59.90;28.70;;;;;;;0.87;100.00;101303.91;1776226;80;20985;-87
2021/11/14 08:24:24;;;;;;;57.48;27.55;;;;;;;0.86;100.00;101302.17;1760342;81;21028;-86
2021/11/14 08:26:50;;;;;;;52.73;27.45;;;;;;;0.81;100.00;101301.20;1770023;80;21513;-86
2021/11/14 08:29:17;;;;;;;57.35;27.98;;;;;;;0.76;100.00;101301.09;1791443;80;20899;-85
2021/11/14 08:31:44;;;;;;;60.88;28.45;;;;;;;0.77;100.00;101304.13;1790854;80;20938;-86
2021/11/14 08:34:12;;;;;;;61.48;28.90;;;;;;;0.82;100.00;101297.75;1789241;80;21014;-87
2021/11/14 08:36:39;;;;;;;59.45;30.15;;;;;;;0.88;100.00;101295.73;1789125;80;21029;-88
2021/11/14 08:39:05;;;;;;;49.45;25.10;;;;;;;0.95;100.00;101289.82;1789938;80;21120;-87
2021/11/14 08:41:32;;;;;;;74.62;32.53;;;;;;;1.02;100.00;101298.18;1793355;79;21025;-87
2021/11/14 08:43:58;;;;;;;69.20;31.17;;;;;;;1.11;100.00;101291.88;1791622;78;21033;-88
2021/11/14 08:46:24;;;;;;;65.78;31.85;;;;;;;1.14;100.00;101286.74;1790725;80;21001;-87
2021/11/14 08:48:51;;;;;;;63.58;29.75;;;;;;;1.17;100.00;101280.30;1789497;80;21053;-87
2021/11/14 08:51:18;;;;;;;60.28;29.05;;;;;;;1.24;100.00;101286.09;1789832;80;21486;-87
2021/11/14 08:53:45;;;;;;;84.15;33.73;;;;;;;1.32;100.00;101281.05;1789399;80;20982;-87
2021/11/14 08:56:14;;;;;;;86.17;38.85;;;;;;;1.39;100.00;101282.91;1789612;80;21005;-85
2021/11/14 08:58:41;;;;;;;68.95;32.40;;;;;;;1.50;100.00;101288.73;1779981;80;21565;-87
2021/11/14 09:01:09;;;;;;;88.72;37.35;;;;;;;1.56;100.00;101285.80;1754521;81;21311;-87
2021/11/14 09:03:36;;;;;;;73.80;35.03;;;;;;;1.63;100.00;101282.90;1754343;81;21872;-88
2021/11/14 09:06:03;;;;;;;80.38;37.25;;;;;;;1.67;100.00;101275.62;1754283;81;21062;-86
2021/11/14 09:08:30;;;;;;;83.47;37.83;;;;;;;1.69;100.00;101285.61;1754303;81;21685;-89
2021/11/14 09:10:56;;;;;;;75.65;37.33;;;;;;;1.73;100.00;101283.53;1754656;81;21061;-87
2021/11/14 09:13:26;;;;;;;84.40;40.48;;;;;;;1.79;100.00;101281.02;1736253;81;21081;-88
2021/11/14 09:15:58;;;;;;;86.53;37.73;;;;;;;1.82;100.00;101286.29;1715660;83;21077;-87
2021/11/14 09:18:24;;;;;;;84.07;38.40;;;;;;;1.85;100.00;101277.23;1715974;81;21014;-87
2021/11/14 09:20:51;;;;;;;74.53;34.80;;;;;;;1.89;100.00;101272.55;1694798;83;21056;-85
2021/11/14 09:23:18;;;;;;;78.45;37.45;;;;;;;1.98;100.00;101276.13;1710674;83;21140;-81
2021/11/14 09:25:45;;;;;;;71.87;36.40;;;;;;;1.98;100.00;101276.13;1719677;83;21725;-82
2021/11/14 09:28:15;;;;;;;84.32;38.38;;;;;;;2.00;100.00;101270.54;1707569;83;21537;-82
2021/11/14 09:30:43;;;;;;;70.22;35.17;;;;;;;2.04;100.00;101269.75;1715388;83;21088;-83
2021/11/14 09:33:12;;;;;;;71.67;34.70;;;;;;;2.07;100.00;101272.38;1720564;83;21056;-83
2021/11/14 09:35:39;;;;;;;76.50;35.15;;;;;;;2.17;100.00;101260.00;1720030;82;21033;-82
2021/11/14 09:38:06;;;;;;;84.35;39.38;;;;;;;2.17;100.00;101260.00;1711427;82;21523;-81
2021/11/14 09:40:34;;;;;;;73.85;33.58;;;;;;;2.23;100.00;101260.11;1720123;83;21272;-81
2021/11/14 09:43:01;;;;;;;87.60;41.40;;;;;;;2.27;100.00;101254.51;1700122;83;21350;-80
2021/11/14 09:45:29;;;;;;;78.20;37.10;;;;;;;2.35;100.00;101249.41;1703511;83;21106;-81
2021/11/14 09:47:56;;;;;;;89.03;40.48;;;;;;;2.48;100.00;101238.34;1708168;83;20992;-81
2021/11/14 09:50:25;;;;;;;93.22;43.40;;;;;;;2.48;100.00;101238.34;1690939;84;21074;-81
2021/11/14 09:52:52;;;;;;;87.45;40.58;;;;;;;2.53;100.00;101245.77;1702247;83;21150;-81
2021/11/14 09:55:20;;;;;;;79.03;36.95;;;;;;;2.52;100.00;101235.80;1720167;83;21033;-82
2021/11/14 09:57:48;;;;;;;80.32;40.88;;;;;;;2.52;100.00;101235.80;1717151;81;21062;-81
2021/11/14 10:00:17;;;;;;;99.22;46.33;;;;;;;2.59;100.00;101241.96;1710382;83;21221;-81
2021/11/14 10:02:44;;;;;;;79.97;37.83;;;;;;;2.66;100.00;101241.19;1710586;83;21060;-81
2021/11/14 10:05:13;;;;;;;90.03;41.85;;;;;;;2.71;100.00;101238.25;1717260;83;21121;-80
2021/11/14 10:08:05;;;;;;;87.67;40.40;;;;;;;2.78;100.00;101239.60;1716120;83;21068;-80
2021/11/14 10:10:39;;;;;;;88.55;41.25;;;;;;;2.82;100.00;101243.56;1698632;84;21083;-81
2021/11/14 10:13:14;;;;;;;106.58;47.98;;;;;;;2.81;100.00;101243.56;1686010;85;21120;-80
2021/11/14 10:15:43;;;;;;;117.65;51.77;;;;;;;2.84;100.00;101240.98;1699248;83;21088;-81
2021/11/14 10:18:12;;;;;;;96.60;43.17;;;;;;;2.86;100.00;101243.19;1728417;83;21135;-81
2021/11/14 10:20:39;;;;;;;88.52;41.40;;;;;;;2.88;100.00;101236.28;1711870;83;21049;-80
2021/11/14 10:23:10;;;;;;;102.17;48.02;;;;;;;2.96;100.00;101239.83;1712635;83;21056;-80
2021/11/14 10:25:38;;;;;;;104.30;47.17;;;;;;;2.98;100.00;101239.42;1728062;83;21644;-80
2021/11/14 10:28:05;;;;;;;97.70;45.95;;;;;;;3.02;100.00;101233.41;1703569;84;21080;-80
2021/11/14 10:30:36;;;;;;;89.72;41.48;;;;;;;3.04;100.00;101230.83;1681725;84;21784;-80
2021/11/14 10:33:07;;;;;;;108.78;48.48;;;;;;;3.08;100.00;101232.18;1671610;85;28288;-81
2021/11/14 10:35:35;;;;;;;115.03;50.58;;;;;;;3.14;100.00;101229.63;1671735;85;21926;-81
2021/11/14 10:38:05;;;;;;;93.25;44.27;;;;;;;3.16;100.00;101230.95;1707326;83;21053;-81
2021/11/14 10:40:37;;;;;;;93.40;43.20;;;;;;;3.15;100.00;101225.28;1714550;83;21120;-80
2021/11/14 10:43:06;;;;;;;96.63;44.10;;;;;;;3.20;100.00;101227.53;1712531;83;21543;-81
2021/11/14 10:45:36;;;;;;;110.45;48.25;;;;;;;3.27;100.00;101222.83;1716142;83;21033;-81
2021/11/14 10:48:08;;;;;;;108.12;49.08;;;;;;;3.31;100.00;101219.81;1716053;83;21085;-81
2021/11/14 10:50:40;;;;;;;120.15;56.30;;;;;;;3.33;100.00;101223.31;1715626;83;21506;-80
2021/11/14 10:53:15;;;;;;;111.65;49.20;;;;;;;3.41;100.00;101225.58;1715625;83;21062;-81
2021/11/14 10:55:52;;;;;;;432.20;185.35;;;;;;;3.44;100.00;101219.08;1715324;83;21200;-81
2021/11/14 10:58:21;;;;;;;230.07;90.92;;;;;;;3.48;100.00;101219.56;1715509;83;21053;-80
2021/11/14 11:00:51;;;;;;;132.95;56.35;;;;;;;3.48;100.00;101216.96;1707903;83;21034;-78
2021/11/14 11:03:19;;;;;;;135.48;57.40;;;;;;;3.49;100.00;101223.90;1728945;83;21100;-79
2021/11/14 11:05:48;;;;;;;107.40;49.08;;;;;;;3.51;100.00;101217.41;1694489;83;21011;-79
2021/11/14 11:08:23;;;;;;;158.25;65.12;;;;;;;3.48;100.00;101210.89;1685850;85;21628;-80
2021/11/14 11:10:55;;;;;;;198.80;72.40;;;;;;;3.47;100.00;101203.48;1673192;85;21036;-79
2021/11/14 11:13:46;;;;;;;123.33;53.80;;;;;;;3.44;100.00;101198.69;1652455;85;21533;-79
2021/11/14 11:16:19;;;;;;;129.03;54.65;;;;;;;3.42;100.00;101200.41;1678489;85;21125;-79
2021/11/14 11:18:57;;;;;;;;;;;;;;;3.45;100.00;101197.41;1682008;85;21102;-78
2021/11/14 11:21:31;;;;;;;184.72;71.65;;;;;;;3.50;100.00;101195.71;1679632;85;21127;-78
2021/11/14 11:24:20;;;;;;;130.25;54.05;;;;;;;3.55;100.00;101200.96;1679669;85;21101;-78
2021/11/14 11:27:06;;;;;;;116.60;51.28;;;;;;;3.57;100.00;101197.52;1678785;85;21113;-78
2021/11/14 11:29:37;;;;;;;115.72;53.30;;;;;;;3.56;100.00;101198.34;1677442;85;21122;-78
2021/11/14 11:32:06;;;;;;;111.03;51.45;;;;;;;3.54;100.00;101201.80;1679075;85;21127;-78
2021/11/14 11:34:34;;;;;;;165.45;60.98;;;;;;;3.52;100.00;101198.31;1678929;85;22082;-78
2021/11/14 11:37:00;;;;;;;159.27;61.00;;;;;;;3.51;100.00;101200.48;1679101;85;21094;-78
2021/11/14 11:39:27;;;;;;;112.35;52.50;;;;;;;3.51;100.00;101193.53;1678346;85;21079;-79
2021/11/14 11:41:55;;;;;;;112.32;48.30;;;;;;;3.50;100.00;101191.80;1651127;85;21134;-79
2021/11/14 11:44:22;;;;;;;130.60;55.05;;;;;;;3.51;100.00;101196.14;1678565;85;21556;-78
2021/11/14 11:46:51;;;;;;;135.75;59.40;;;;;;;3.51;100.00;101185.72;1678863;85;21119;-79
2021/11/14 11:49:23;;;;;;;118.00;53.23;;;;;;;3.54;100.00;101183.17;1677651;83;21657;-79
2021/11/14 11:51:53;;;;;;;129.25;56.13;;;;;;;3.55;100.00;101184.03;1678891;85;22256;-79
2021/11/14 11:54:24;;;;;;;133.27;57.30;;;;;;;3.57;100.00;101184.48;1664920;85;21732;-78
2021/11/14 11:57:10;;;;;;;141.32;61.45;;;;;;;3.60;100.00;101194.05;1651134;85;21062;-79
2021/11/14 11:59:46;;;;;;;166.82;65.97;;;;;;;3.66;100.00;101186.70;1651004;85;21181;-78
2021/11/14 12:02:26;;;;;;;126.02;55.83;;;;;;;3.72;100.00;101183.72;1651297;86;21118;-79
2021/11/14 12:04:52;;;;;;;125.90;56.13;;;;;;;3.77;100.00;101181.16;1651099;86;21137;-78
2021/11/14 12:07:25;;;;;;;153.53;64.05;;;;;;;3.84;100.00;101185.98;1651338;86;21133;-79
2021/11/14 12:09:55;;;;;;;155.63;67.65;;;;;;;3.87;100.00;101176.47;1667165;84;21688;-80
2021/11/14 12:12:30;;;;;;;139.62;62.17;;;;;;;3.91;100.00;101184.76;1703963;84;21674;-79
2021/11/14 12:15:16;;;;;;;149.50;66.15;;;;;;;3.92;100.00;101181.27;1692611;84;21160;-79
2021/11/14 12:17:56;;;;;;;155.80;66.00;;;;;;;3.96;100.00;101181.75;1688841;84;20992;-79
2021/11/14 12:20:31;;;;;;;133.80;59.20;;;;;;;3.95;100.00;101182.59;1716183;83;21009;-79
2021/11/14 12:23:02;;;;;;;158.70;70.03;;;;;;;3.89;100.00;101187.78;1692870;84;22100;-79
2021/11/14 12:25:40;;;;;;;143.72;64.62;;;;;;;3.91;100.00;101183.86;1697450;83;21136;-78
2021/11/14 12:28:11;;;;;;;147.17;64.65;;;;;;;3.93;100.00;101188.25;1684121;83;21735;-79
2021/11/14 12:30:46;;;;;;;139.75;62.20;;;;;;;3.99;100.00;101189.58;1684943;84;21916;-79
2021/11/14 12:33:26;;;;;;;134.65;60.67;;;;;;;4.01;100.00;101187.43;1691765;84;21040;-79
2021/11/14 12:35:58;;;;;;;165.20;67.78;;;;;;;3.99;100.00;101192.18;1691800;84;21095;-79
2021/11/14 12:38:26;;;;;;;169.00;68.28;;;;;;;4.01;100.00;101196.55;1691115;84;21180;-79
2021/11/14 12:40:57;;;;;;;140.62;61.88;;;;;;;3.95;100.00;101195.63;1691866;84;21080;-79
2021/11/14 12:43:27;;;;;;;;;;;;;;;3.95;100.00;101197.36;1693637;84;21108;-79
2021/11/14 12:45:58;;;;;;;179.07;73.27;;;;;;;3.93;100.00;101201.28;1692827;84;20204;-79
2021/11/14 12:48:26;;;;;;;;;;;;;;;3.91;100.00;101197.79;1722935;83;21579;-79
2021/11/14 12:51:07;;;;;;;192.95;77.62;;;;;;;3.91;100.00;101195.19;1693626;84;21135;-78
2021/11/14 12:53:54;;;;;;;;;;;;;;;3.91;100.00;101196.48;1723216;83;21048;-78
2021/11/14 12:56:37;;;;;;;167.57;67.45;;;;;;;3.90;100.00;101192.12;1693610;84;20235;-78
2021/11/14 12:59:26;;;;;;;162.70;66.22;;;;;;;3.88;100.00;101194.27;1720604;83;23038;-79
2021/11/14 13:01:59;;;;;;;198.78;83.15;;;;;;;3.86;100.00;101192.95;1693652;84;21068;-79
2021/11/14 13:04:29;;;;;;;143.70;61.92;;;;;;;3.89;100.00;101183.88;1721201;83;21176;-79
2021/11/14 13:06:57;;;;;;;169.20;70.40;;;;;;;3.90;100.00;101186.91;1721548;83;21104;-79
2021/11/14 13:09:24;;;;;;;139.77;59.83;;;;;;;3.86;100.00;101182.52;1723471;82;21112;-79
2021/11/14 13:12:10;;;;;;;140.62;61.98;;;;;;;3.84;100.00;101187.28;1733214;82;21898;-79
2021/11/14 13:14:40;;;;;;;133.07;58.38;;;;;;;3.84;100.00;101182.08;1732880;82;21092;-79
2021/11/14 13:17:09;;;;;;;155.65;64.50;;;;;;;3.79;100.00;101188.12;1733288;82;21114;-79
2021/11/14 13:19:37;;;;;;;121.05;52.38;;;;;;;3.77;100.00;101182.45;1733211;82;21025;-79
2021/11/14 13:22:05;;;;;;;140.35;62.48;;;;;;;3.74;100.00;101179.40;1733256;82;21100;-78
2021/11/14 13:24:32;;;;;;;152.97;64.58;;;;;;;3.78;100.00;101190.73;1730903;82;21104;-79
2021/11/14 13:27:11;;;;;;;151.02;65.83;;;;;;;3.79;100.00;101187.25;1712037;82;21061;-79
2021/11/14 13:29:47;;;;;;;146.18;63.02;;;;;;;3.83;100.00;101194.23;1721335;82;21595;-80
2021/11/14 13:32:23;;;;;;;144.50;61.35;;;;;;;3.85;100.00;101189.91;1700941;84;21020;-79